createdAt,value
2022-10-13T00:01:44.468Z,58507.38
2022-10-13T00:04:28.475Z,58476.31
2022-10-13T00:07:08.852Z,58538.41
2022-10-13T00:09:44.293Z,58517.72
2022-10-13T00:15:32.971Z,58292.09
2022-10-13T00:18:02.404Z,58490.81
2022-10-13T00:20:40.418Z,58743.38
2022-10-13T00:25:50.428Z,58331.41
2022-10-13T00:28:38.522Z,58505.31
2022-10-13T00:34:20.665Z,58718.53
2022-10-13T00:37:13.194Z,58540.50
2022-10-13T00:39:45.152Z,58722.66
2022-10-13T00:42:17.279Z,58532.22
2022-10-13T00:48:32.769Z,58470.13
2022-10-13T00:51:09.006Z,58623.28
2022-10-13T00:53:45.061Z,58805.47
2022-10-13T00:56:21.138Z,58590.19
2022-10-13T00:58:59.521Z,58813.75
2022-10-13T01:04:28.472Z,58594.31
2022-10-13T01:07:08.186Z,58596.38
2022-10-13T01:13:23.089Z,58675.06
2022-10-13T01:16:20.767Z,58610.88
2022-10-13T01:19:32.936Z,58612.94
2022-10-13T01:22:34.717Z,58615.00
2022-10-13T01:28:21.028Z,58656.41
2022-10-13T01:31:32.599Z,58656.41
2022-10-13T01:34:18.547Z,58685.41
2022-10-13T01:37:19.750Z,58708.16
2022-10-13T01:40:18.020Z,58689.53
2022-10-13T01:43:08.937Z,58693.69
2022-10-13T01:46:04.139Z,58693.69
2022-10-13T01:48:44.376Z,58691.59
2022-10-13T01:51:20.714Z,59070.47
2022-10-13T01:53:47.681Z,58801.31
2022-10-13T01:56:19.465Z,58813.75
2022-10-13T02:01:56.536Z,58813.75
2022-10-13T02:04:43.403Z,58830.31
2022-10-13T02:07:21.632Z,58857.22
2022-10-13T02:09:50.914Z,58824.09
2022-10-13T02:12:32.663Z,58859.28
2022-10-13T02:15:00.567Z,58880.00
2022-10-13T02:17:42.158Z,58846.88
2022-10-13T02:20:15.705Z,58908.97
2022-10-13T02:22:56.965Z,58880.00
2022-10-13T02:25:24.370Z,58927.63
2022-10-13T02:28:09.136Z,58861.38
2022-10-13T02:30:54.239Z,58913.13
2022-10-13T02:33:20.614Z,59070.47
2022-10-13T02:36:12.078Z,58937.97
2022-10-13T02:39:31.683Z,58981.44
2022-10-13T02:44:57.455Z,59165.69
2022-10-13T02:47:46.801Z,58764.06
2022-10-13T02:50:21.226Z,59260.94
2022-10-13T02:52:56.675Z,59407.94
2022-10-13T02:55:32.352Z,58871.72
2022-10-13T02:58:31.730Z,59016.63
2022-10-13T03:01:35.847Z,59037.34
2022-10-13T03:04:02.215Z,59132.56
2022-10-13T03:06:32.167Z,59008.34
2022-10-13T03:09:22.341Z,58995.94
2022-10-13T03:11:48.725Z,58971.09
2022-10-13T03:14:15.157Z,59029.06
2022-10-13T03:17:13.251Z,58875.84
2022-10-13T03:19:45.417Z,58935.91
2022-10-13T03:22:21.392Z,58948.31
2022-10-13T03:24:47.974Z,59070.47
2022-10-13T03:27:14.416Z,59076.69
2022-10-13T03:29:41.051Z,59109.81
2022-10-13T03:32:07.545Z,59122.22
2022-10-13T03:34:36.278Z,59062.19
2022-10-13T03:37:04.945Z,59118.09
2022-10-13T03:39:33.816Z,59097.38
2022-10-13T03:42:00.271Z,59196.75
2022-10-13T03:44:26.674Z,59140.84
2022-10-13T03:46:53.101Z,59118.09
2022-10-13T03:49:21.852Z,59093.25
2022-10-13T03:51:48.230Z,59089.09
2022-10-13T03:54:14.729Z,59118.09
2022-10-13T03:56:42.354Z,59205.03
2022-10-13T03:59:11.833Z,59105.66
2022-10-13T04:01:39.364Z,59126.38
2022-10-13T04:04:07.471Z,59103.59
2022-10-13T04:06:34.220Z,59066.31
2022-10-13T04:09:00.658Z,59231.97
2022-10-13T04:11:27.183Z,59095.31
2022-10-13T04:13:53.663Z,59074.59
2022-10-13T04:16:24.020Z,59130.50
2022-10-13T04:19:07.166Z,59091.16
2022-10-13T04:21:44.471Z,59138.78
2022-10-13T04:24:32.134Z,59103.59
2022-10-13T04:27:23.218Z,59120.16
2022-10-13T04:29:51.269Z,59165.69
2022-10-13T04:32:17.975Z,59151.22
2022-10-13T04:34:47.418Z,59099.44
2022-10-13T04:37:23.862Z,59130.50
2022-10-13T04:40:00.543Z,59198.81
2022-10-13T04:42:32.553Z,59583.94
2022-10-13T04:45:01.449Z,59147.06
2022-10-13T04:48:04.286Z,59062.19
2022-10-13T04:50:29.062Z,59103.59
2022-10-13T04:52:55.473Z,59171.91
2022-10-13T04:55:21.942Z,59211.25
2022-10-13T04:57:48.461Z,59142.94
2022-10-13T05:00:15.257Z,59142.94
2022-10-13T05:02:41.736Z,59155.34
2022-10-13T05:05:08.772Z,59163.63
2022-10-13T05:07:35.466Z,59190.53
2022-10-13T05:10:01.945Z,59159.50
2022-10-13T05:12:28.660Z,59180.19
2022-10-13T05:14:55.245Z,59157.41
2022-10-13T05:17:21.757Z,59163.63
2022-10-13T05:19:49.240Z,59116.00
2022-10-13T05:22:15.675Z,59020.78
2022-10-13T05:24:42.098Z,59163.63
2022-10-13T05:27:13.210Z,59165.69
2022-10-13T05:29:40.469Z,59194.69
2022-10-13T05:32:06.935Z,59364.47
2022-10-13T05:34:34.618Z,59188.47
2022-10-13T05:37:01.268Z,59101.53
2022-10-13T05:39:27.905Z,59176.06
2022-10-13T05:41:54.395Z,59165.69
2022-10-13T05:44:21.346Z,59225.75
2022-10-13T05:46:47.845Z,59153.28
2022-10-13T05:49:14.818Z,59207.09
2022-10-13T05:51:47.989Z,59209.19
2022-10-13T05:54:16.368Z,59225.75
2022-10-13T05:56:56.728Z,59414.16
2022-10-13T05:59:27.086Z,59194.69
2022-10-13T06:01:54.919Z,59202.97
2022-10-13T06:04:26.629Z,59182.25
2022-10-13T06:06:53.150Z,59202.97
2022-10-13T06:09:20.329Z,59165.69
2022-10-13T06:11:46.793Z,59198.81
2022-10-13T06:14:13.258Z,59145.00
2022-10-13T06:16:40.954Z,59111.88
2022-10-13T06:19:07.390Z,59424.50
2022-10-13T06:21:36.889Z,59202.97
2022-10-13T06:24:03.565Z,59575.66
2022-10-13T06:26:30.068Z,59130.50
2022-10-13T06:28:59.592Z,59167.78
2022-10-13T06:31:27.030Z,59163.63
2022-10-13T06:33:53.559Z,59149.13
2022-10-13T06:36:20.141Z,59207.09
2022-10-13T06:38:46.972Z,59157.41
2022-10-13T06:41:14.354Z,59211.25
2022-10-13T06:43:41.154Z,59192.63
2022-10-13T06:46:07.924Z,59219.53
2022-10-13T06:48:34.879Z,59209.19
2022-10-13T06:51:04.613Z,59215.41
2022-10-13T06:53:31.579Z,59213.31
2022-10-13T06:56:02.440Z,59198.81
2022-10-13T06:58:28.962Z,59242.31
2022-10-13T07:00:55.726Z,59287.84
2022-10-13T07:03:22.569Z,59231.97
2022-10-13T07:05:48.949Z,59519.75
2022-10-13T07:08:15.735Z,59306.50
2022-10-13T07:10:42.916Z,59604.66
2022-10-13T07:13:09.319Z,59374.81
2022-10-13T07:15:39.921Z,59378.97
2022-10-13T07:18:06.712Z,59445.22
2022-10-13T07:20:33.453Z,59439.00
2022-10-13T07:22:59.895Z,59511.47
2022-10-13T07:25:26.316Z,59548.75
2022-10-13T07:27:52.704Z,59550.81
2022-10-13T07:30:19.121Z,59534.25
2022-10-13T07:32:45.602Z,59768.22
2022-10-13T07:35:12.225Z,59525.97
2022-10-13T07:37:39.256Z,59571.53
2022-10-13T07:40:07.279Z,59532.19
2022-10-13T07:42:33.696Z,59575.66
2022-10-13T07:45:00.085Z,59654.34
2022-10-13T07:47:26.505Z,59739.25
2022-10-13T07:49:54.623Z,59662.63
2022-10-13T07:52:21.265Z,59639.84
2022-10-13T07:54:48.428Z,59660.56
2022-10-13T07:57:15.241Z,59654.34
2022-10-13T07:59:41.821Z,59766.16
2022-10-13T08:02:09.418Z,59708.19
2022-10-13T08:04:36.005Z,60074.72
2022-10-13T08:07:03.244Z,59675.06
2022-10-13T08:09:29.726Z,59650.19
2022-10-13T08:12:00.579Z,59774.44
2022-10-13T08:14:29.166Z,59782.72
2022-10-13T08:16:55.951Z,59786.88
2022-10-13T08:19:22.497Z,59741.31
2022-10-13T08:21:58.691Z,59755.81
2022-10-13T08:24:25.524Z,59751.66
2022-10-13T08:26:51.915Z,59720.59
2022-10-13T08:29:22.517Z,59730.97
2022-10-13T08:31:51.487Z,59714.41
2022-10-13T08:34:18.064Z,59728.88
2022-10-13T08:36:44.660Z,59735.09
2022-10-13T08:39:11.246Z,59944.25
2022-10-13T08:41:40.450Z,59791.00
2022-10-13T08:45:10.812Z,59770.31
2022-10-13T08:47:26.749Z,59762.03
2022-10-13T08:50:00.328Z,59987.72
2022-10-13T08:52:30.545Z,59666.78
2022-10-13T08:54:58.502Z,59753.75
2022-10-13T08:57:24.996Z,59969.09
2022-10-13T08:59:52.445Z,59757.88
2022-10-13T09:02:30.584Z,59730.97
2022-10-13T09:04:59.224Z,59811.72
2022-10-13T09:07:29.518Z,59896.63
2022-10-13T09:09:56.224Z,59915.25
2022-10-13T09:12:26.600Z,60016.72
2022-10-13T09:15:09.706Z,60062.28
2022-10-13T09:17:37.989Z,60072.63
2022-10-13T09:20:23.367Z,60217.59
2022-10-13T09:23:02.171Z,60308.72
2022-10-13T09:25:28.979Z,60317.00
2022-10-13T09:28:00.386Z,60364.63
2022-10-13T09:30:35.702Z,60395.72
2022-10-13T09:33:08.879Z,60366.72
2022-10-13T09:35:36.792Z,60474.41
2022-10-13T09:38:24.992Z,60385.34
2022-10-13T09:41:09.665Z,60486.84
2022-10-13T09:43:37.290Z,60557.25
2022-10-13T09:46:26.847Z,60602.81
2022-10-13T09:49:06.216Z,60623.53
2022-10-13T09:51:38.765Z,60598.66
2022-10-13T09:54:06.580Z,60588.31
2022-10-13T09:56:41.721Z,60681.53
2022-10-13T09:59:33.277Z,60673.22
2022-10-13T10:02:13.372Z,60602.81
2022-10-13T10:04:43.343Z,60606.97
2022-10-13T10:07:12.690Z,60664.94
2022-10-13T10:09:42.904Z,60654.59
2022-10-13T10:12:13.277Z,60635.94
2022-10-13T10:14:39.827Z,60662.88
2022-10-13T10:17:09.172Z,60693.94
2022-10-13T10:19:45.263Z,60859.66
2022-10-13T10:22:35.189Z,60872.06
2022-10-13T10:25:01.661Z,60816.16
2022-10-13T10:27:27.992Z,60834.78
2022-10-13T10:30:01.744Z,60789.22
2022-10-13T10:32:51.347Z,60822.38
2022-10-13T10:35:29.495Z,60849.28
2022-10-13T10:38:07.334Z,60822.38
2022-10-13T10:40:38.987Z,60905.22
2022-10-13T10:43:30.348Z,60901.06
2022-10-13T10:45:58.845Z,61017.06
2022-10-13T10:48:36.159Z,60981.84
2022-10-13T10:51:03.514Z,61131.00
2022-10-13T10:53:54.926Z,61389.94
2022-10-13T10:56:32.376Z,61141.34
2022-10-13T10:59:14.281Z,61099.91
2022-10-13T11:01:45.838Z,61224.22
2022-10-13T11:04:41.811Z,61232.50
2022-10-13T11:07:31.249Z,61261.50
2022-10-13T11:09:58.057Z,61414.78
2022-10-13T11:12:25.702Z,61445.84
2022-10-13T11:14:55.034Z,61570.16
2022-10-13T11:17:28.636Z,61350.56
2022-10-13T11:19:55.733Z,61273.94
2022-10-13T11:22:26.934Z,61450.00
2022-10-13T11:25:08.518Z,61532.88
2022-10-13T11:27:34.878Z,61570.16
2022-10-13T11:30:39.382Z,61327.78
2022-10-13T11:33:34.589Z,61247.00
2022-10-13T11:36:37.347Z,61261.50
2022-10-13T11:42:37.794Z,61050.22
2022-10-13T11:45:18.805Z,61023.28
2022-10-13T11:48:03.873Z,61037.78
2022-10-13T11:50:56.241Z,61010.84
2022-10-13T11:53:54.846Z,60896.94
2022-10-13T11:56:39.610Z,60954.94
2022-10-13T11:59:23.934Z,61091.63
2022-10-13T12:02:18.956Z,60818.22
2022-10-13T12:05:19.695Z,60698.09
2022-10-13T12:07:47.639Z,60905.22
2022-10-13T12:10:37.997Z,60652.53
2022-10-13T12:13:05.356Z,60677.38
2022-10-13T12:15:37.113Z,60780.94
2022-10-13T12:18:20.065Z,60691.88
2022-10-13T12:20:52.986Z,60441.28
2022-10-13T12:23:19.414Z,60441.28
2022-10-13T12:25:49.867Z,60441.28
2022-10-13T12:28:20.062Z,60381.22
2022-10-13T12:30:54.505Z,60389.50
2022-10-13T12:33:27.566Z,60435.06
2022-10-13T12:35:54.479Z,60395.72
2022-10-13T12:38:21.811Z,60395.72
2022-10-13T12:40:49.827Z,60383.28
2022-10-13T12:43:25.045Z,60482.69
2022-10-13T12:45:51.815Z,60370.84
2022-10-13T12:48:36.010Z,60404.00
2022-10-13T12:51:28.875Z,60385.34
2022-10-13T12:53:55.515Z,60383.28
2022-10-13T12:56:29.580Z,60416.41
2022-10-13T12:58:56.675Z,60408.13
2022-10-13T13:01:27.920Z,60627.66
2022-10-13T13:03:58.522Z,60598.66
2022-10-13T13:06:30.555Z,60600.75
2022-10-13T13:09:07.840Z,60611.09
2022-10-13T13:11:37.609Z,60519.97
2022-10-13T13:14:38.031Z,60435.06
2022-10-13T13:17:27.633Z,60424.69
2022-10-13T13:20:24.465Z,60399.84
2022-10-13T13:22:50.965Z,60497.19
2022-10-13T13:25:17.414Z,60474.41
2022-10-13T13:27:44.023Z,60466.13
2022-10-13T13:30:12.707Z,60461.97
2022-10-13T13:32:39.165Z,60364.63
2022-10-13T13:35:06.434Z,60418.50
2022-10-13T13:37:50.425Z,60331.50
2022-10-13T13:40:20.518Z,60343.94
2022-10-13T13:42:47.121Z,60323.22
2022-10-13T13:45:15.861Z,60300.44
2022-10-13T13:47:42.353Z,60225.88
2022-10-13T13:50:17.892Z,60240.38
2022-10-13T13:52:44.344Z,60240.38
2022-10-13T13:55:10.695Z,60256.94
2022-10-13T13:57:37.129Z,60273.53
2022-10-13T14:00:05.096Z,60246.59
2022-10-13T14:02:31.809Z,60254.88
2022-10-13T14:04:58.533Z,60240.38
2022-10-13T14:07:24.981Z,60190.69
2022-10-13T14:09:51.407Z,60250.75
2022-10-13T14:12:18.087Z,60163.75
2022-10-13T14:14:44.663Z,60130.63
2022-10-13T14:17:11.043Z,60093.34
2022-10-13T14:19:37.401Z,60120.28
2022-10-13T14:22:08.593Z,60070.56
2022-10-13T14:24:35.888Z,60101.63
2022-10-13T14:27:02.273Z,60064.34
2022-10-13T14:29:29.635Z,60076.78
2022-10-13T14:31:56.026Z,60027.06
2022-10-13T14:34:22.437Z,60068.50
2022-10-13T14:36:49.051Z,60076.78
2022-10-13T14:39:15.520Z,60099.56
2022-10-13T14:41:42.016Z,60283.88
2022-10-13T14:44:11.675Z,60037.44
2022-10-13T14:46:38.058Z,60056.06
2022-10-13T14:49:04.441Z,60025.00
2022-10-13T14:51:31.677Z,59985.66
2022-10-13T14:53:58.033Z,59969.09
2022-10-13T14:56:26.529Z,60031.22
2022-10-13T14:58:54.634Z,60002.22
2022-10-13T15:01:21.129Z,60000.16
2022-10-13T15:03:48.027Z,60004.31
2022-10-13T15:06:19.582Z,59948.38
2022-10-13T15:08:46.506Z,59996.03
2022-10-13T15:11:13.511Z,60283.88
2022-10-13T15:13:40.676Z,59973.25
2022-10-13T15:16:08.003Z,59962.88
2022-10-13T15:18:36.145Z,59919.41
2022-10-13T15:21:02.723Z,59952.53
2022-10-13T15:23:29.149Z,59989.81
2022-10-13T15:25:57.869Z,59960.81
2022-10-13T15:28:26.508Z,59938.03
2022-10-13T15:30:53.151Z,59942.19
2022-10-13T15:33:19.954Z,59948.38
2022-10-13T15:35:50.477Z,60008.44
2022-10-13T15:38:18.251Z,59989.81
2022-10-13T15:40:44.653Z,60012.59
2022-10-13T15:43:11.204Z,60008.44
2022-10-13T15:45:37.962Z,60031.22
2022-10-13T15:48:09.888Z,59996.03
2022-10-13T15:50:43.268Z,60051.94
2022-10-13T15:53:09.741Z,60002.22
2022-10-13T15:55:36.187Z,60068.50
2022-10-13T15:58:02.762Z,60072.63
2022-10-13T16:00:29.320Z,60064.34
2022-10-13T16:02:55.898Z,59981.53
2022-10-13T16:05:22.663Z,59985.66
2022-10-13T16:07:49.391Z,60008.44
2022-10-13T16:10:16.243Z,59991.88
2022-10-13T16:12:48.310Z,59956.66
2022-10-13T16:15:17.230Z,60010.50
2022-10-13T16:17:46.149Z,59962.88
2022-10-13T16:20:13.531Z,59960.81
2022-10-13T16:22:39.901Z,59956.66
2022-10-13T16:25:06.806Z,59909.03
2022-10-13T16:27:33.265Z,59931.81
2022-10-13T16:29:59.692Z,59851.06
2022-10-13T16:32:26.114Z,59921.47
2022-10-13T16:34:52.466Z,59904.91
2022-10-13T16:37:19.647Z,59894.53
2022-10-13T16:39:51.209Z,59888.34
2022-10-13T16:42:18.223Z,59836.56
2022-10-13T16:44:44.610Z,59882.13
2022-10-13T16:47:15.909Z,59871.78
2022-10-13T16:49:44.573Z,60004.31
2022-10-13T16:52:11.010Z,59822.06
2022-10-13T16:54:37.401Z,59863.47
2022-10-13T16:57:04.025Z,59873.84
2022-10-13T16:59:30.498Z,59791.00
2022-10-13T17:01:57.825Z,59857.28
2022-10-13T17:04:24.506Z,59764.09
2022-10-13T17:06:50.985Z,59772.38
2022-10-13T17:09:17.386Z,59788.94
2022-10-13T17:11:43.918Z,59774.44
2022-10-13T17:14:10.762Z,59782.72
2022-10-13T17:16:37.187Z,59751.66
2022-10-13T17:19:03.676Z,59759.94
2022-10-13T17:21:30.110Z,59753.75
2022-10-13T17:23:57.460Z,59691.63
2022-10-13T17:26:23.846Z,59753.75
2022-10-13T17:28:50.370Z,59722.69
2022-10-13T17:31:22.218Z,59954.59
2022-10-13T17:33:49.029Z,59724.75
2022-10-13T17:36:24.670Z,59795.16
2022-10-13T17:38:52.377Z,59774.44
2022-10-13T17:41:19.183Z,59755.81
2022-10-13T17:43:45.709Z,59753.75
2022-10-13T17:46:35.647Z,59791.00
2022-10-13T17:49:03.794Z,59791.00
2022-10-13T17:51:30.174Z,59768.22
2022-10-13T17:53:58.769Z,59784.78
2022-10-13T17:56:25.337Z,59708.19
2022-10-13T17:58:52.323Z,59782.72
2022-10-13T18:01:21.222Z,59762.03
2022-10-13T18:03:49.995Z,59774.44
2022-10-13T18:06:17.415Z,59735.09
2022-10-13T18:08:44.280Z,59600.50
2022-10-13T18:11:12.710Z,59745.47
2022-10-13T18:13:39.348Z,59784.78
2022-10-13T18:16:16.567Z,59795.16
2022-10-13T18:18:44.848Z,59772.38
2022-10-13T18:21:13.706Z,59784.78
2022-10-13T18:23:40.555Z,59803.44
2022-10-13T18:26:15.465Z,59718.53
2022-10-13T18:28:45.773Z,59807.56
2022-10-13T18:31:15.010Z,59762.03
2022-10-13T18:33:41.919Z,59803.44
2022-10-13T18:36:16.703Z,59695.75
2022-10-13T18:38:43.726Z,59770.31
2022-10-13T18:41:10.161Z,59743.38
2022-10-13T18:43:36.561Z,59745.47
2022-10-13T18:46:04.094Z,59762.03
2022-10-13T18:48:31.239Z,59776.50
2022-10-13T18:51:05.763Z,59749.59
2022-10-13T18:53:32.164Z,59737.16
2022-10-13T18:56:10.880Z,59714.41
2022-10-13T18:58:37.261Z,59728.88
2022-10-13T19:01:13.200Z,59766.16
2022-10-13T19:03:40.862Z,59780.66
2022-10-13T19:06:09.410Z,59753.75
2022-10-13T19:08:35.848Z,59687.47
2022-10-13T19:11:10.331Z,59695.75
2022-10-13T19:13:36.769Z,59751.66
2022-10-13T19:16:03.410Z,59770.31
2022-10-13T19:18:30.087Z,59782.72
2022-10-13T19:20:56.592Z,59757.88
2022-10-13T19:23:23.083Z,59739.25
2022-10-13T19:25:49.723Z,59813.78
2022-10-13T19:28:16.593Z,59733.03
2022-10-13T19:30:42.986Z,59687.47
2022-10-13T19:33:09.694Z,59697.81
2022-10-13T19:35:43.866Z,59728.88
2022-10-13T19:38:10.476Z,59716.47
2022-10-13T19:40:42.186Z,59735.09
2022-10-13T19:43:09.779Z,59666.78
2022-10-13T19:45:36.211Z,59646.06
2022-10-13T19:48:02.620Z,59662.63
2022-10-13T19:50:29.042Z,59691.63
2022-10-13T19:52:55.411Z,59641.91
2022-10-13T19:55:21.812Z,59704.03
2022-10-13T19:57:48.225Z,59685.41
2022-10-13T20:00:15.439Z,59666.78
2022-10-13T20:02:41.929Z,59641.91
2022-10-13T20:05:08.440Z,59648.13
2022-10-13T20:07:34.863Z,59691.63
2022-10-13T20:10:01.237Z,59689.53
2022-10-13T20:12:27.644Z,59967.03
2022-10-13T20:14:54.021Z,59646.06
2022-10-13T20:17:20.600Z,59644.00
2022-10-13T20:19:47.164Z,59687.47
2022-10-13T20:22:13.558Z,59685.41
2022-10-13T20:24:39.927Z,59654.34
2022-10-13T20:27:06.331Z,59656.41
2022-10-13T20:29:32.762Z,59648.13
2022-10-13T20:31:59.129Z,59730.97
2022-10-13T20:34:25.530Z,59621.22
2022-10-13T20:36:52.015Z,59639.84
2022-10-13T20:39:18.458Z,59650.19
2022-10-13T20:41:44.907Z,59672.97
2022-10-13T20:44:11.606Z,59712.31
2022-10-13T20:46:38.016Z,59635.72
2022-10-13T20:49:12.932Z,59691.63
2022-10-13T20:51:40.393Z,59644.00
2022-10-13T20:54:07.585Z,59608.78
2022-10-13T20:56:34.047Z,59658.50
2022-10-13T20:59:09.669Z,59708.19
2022-10-13T21:01:36.921Z,59662.63
2022-10-13T21:04:04.286Z,59641.91
2022-10-13T21:06:31.004Z,59662.63
2022-10-13T21:08:57.388Z,59654.34
2022-10-13T21:11:23.992Z,59612.94
2022-10-13T21:13:51.500Z,59662.63
2022-10-13T21:16:20.600Z,59646.06
2022-10-13T21:18:49.962Z,59596.38
2022-10-13T21:21:18.545Z,59662.63
2022-10-13T21:23:46.051Z,59646.06
2022-10-13T21:26:14.379Z,59617.06
2022-10-13T21:28:44.006Z,59670.91
2022-10-13T21:31:12.760Z,59615.00
2022-10-13T21:33:40.407Z,59662.63
2022-10-13T21:36:12.132Z,59583.94
2022-10-13T21:38:43.351Z,59579.81
2022-10-13T21:41:11.747Z,59625.34
2022-10-13T21:43:38.268Z,59631.56
2022-10-13T21:46:19.105Z,59679.19
2022-10-13T21:48:46.792Z,59637.78
2022-10-13T21:51:17.514Z,59650.19
2022-10-13T21:53:44.096Z,59623.28
2022-10-13T21:56:11.905Z,59712.31
2022-10-13T21:58:38.929Z,59646.06
2022-10-13T22:01:06.396Z,59654.34
2022-10-13T22:03:33.676Z,59672.97
2022-10-13T22:06:08.045Z,59699.91
2022-10-13T22:08:42.416Z,59681.25
2022-10-13T22:11:10.608Z,59586.00
2022-10-13T22:13:37.132Z,59697.81
2022-10-13T22:16:09.122Z,59660.56
2022-10-13T22:18:35.627Z,59581.88
2022-10-13T22:21:07.118Z,59635.72
2022-10-13T22:23:33.600Z,59592.22
2022-10-13T22:26:00.190Z,59561.16
2022-10-13T22:28:26.718Z,59633.63
2022-10-13T22:30:53.308Z,59641.91
2022-10-13T22:33:20.146Z,59654.34
2022-10-13T22:35:46.840Z,59940.09
2022-10-13T22:38:14.090Z,59538.38
2022-10-13T22:40:41.342Z,59581.88
2022-10-13T22:43:07.836Z,59617.06
2022-10-13T22:45:34.425Z,59639.84
2022-10-13T22:48:02.030Z,59644.00
2022-10-13T22:50:28.484Z,59608.78
2022-10-13T22:52:54.886Z,59646.06
2022-10-13T22:55:21.247Z,59675.06
2022-10-13T22:57:47.619Z,59617.06
2022-10-13T23:00:14.537Z,59594.28
2022-10-13T23:02:41.148Z,59625.34
2022-10-13T23:05:07.934Z,59623.28
2022-10-13T23:07:34.310Z,59637.78
2022-10-13T23:10:00.668Z,59832.44
2022-10-13T23:12:27.032Z,59648.13
2022-10-13T23:14:53.440Z,59631.56
2022-10-13T23:17:20.257Z,59602.59
2022-10-13T23:19:47.035Z,59600.50
2022-10-13T23:22:13.591Z,59586.00
2022-10-13T23:24:39.953Z,59641.91
2022-10-13T23:27:06.358Z,59648.13
2022-10-13T23:29:32.747Z,59869.69
2022-10-13T23:31:59.298Z,59650.19
2022-10-13T23:34:25.730Z,59561.16
2022-10-13T23:36:52.115Z,59633.63
2022-10-13T23:39:18.486Z,59896.63
2022-10-13T23:41:45.021Z,59581.88
2022-10-13T23:44:11.612Z,59625.34
2022-10-13T23:46:38.058Z,59621.22
2022-10-13T23:49:04.436Z,59625.34
2022-10-13T23:51:31.071Z,59641.91
2022-10-13T23:53:58.605Z,59602.59
2022-10-13T23:56:25.209Z,59604.66
2022-10-13T23:58:51.693Z,59919.41
